sensor_id;sensor_type;location;lat;lon;timestamp;noise_LAeq;noise_LA_min;noise_LA_max;noise_LA01;noise_LA95
1754;Laerm;58380;48.312;9.246;2023-07-31T07:02:58;44.81;34.25;69.46;;
1754;Laerm;58380;48.312;9.246;2023-07-31T07:05:23;47.07;35.73;61.03;;
1754;Laerm;58380;48.312;9.246;2023-07-31T07:07:50;43.85;35.93;54.25;;
1754;Laerm;58380;48.312;9.246;2023-07-31T07:10:16;44.83;35.93;55.83;;
1754;Laerm;58380;48.312;9.246;2023-07-31T07:12:42;44.43;34.12;55.13;;
1754;Laerm;58380;48.312;9.246;2023-07-31T07:15:08;43.21;34.96;52.82;;
1754;Laerm;58380;48.312;9.246;2023-07-31T07:17:33;45.90;37.62;68.55;;
1754;Laerm;58380;48.312;9.246;2023-07-31T07:20:00;45.33;38.03;56.77;;
1754;Laerm;58380;48.312;9.246;2023-07-31T07:22:25;43.46;32.59;55.05;;
1754;Laerm;58380;48.312;9.246;2023-07-31T07:24:52;45.40;35.97;60.19;;
1754;Laerm;58380;48.312;9.246;2023-07-31T07:27:17;42.19;33.18;52.89;;
1754;Laerm;58380;48.312;9.246;2023-07-31T07:29:43;47.13;36.27;64.78;;
1754;Laerm;58380;48.312;9.246;2023-07-31T07:32:08;41.57;34.13;56.13;;
1754;Laerm;58380;48.312;9.246;2023-07-31T07:34:33;43.62;37.81;53.47;;
1754;Laerm;58380;48.312;9.246;2023-07-31T07:36:59;40.88;33.08;51.81;;
1754;Laerm;58380;48.312;9.246;2023-07-31T07:39:24;44.80;35.95;56.04;;
1754;Laerm;58380;48.312;9.246;2023-07-31T07:41:50;44.38;33.73;60.06;;
1754;Laerm;58380;48.312;9.246;2023-07-31T07:44:15;42.78;36.07;51.96;;
1754;Laerm;58380;48.312;9.246;2023-07-31T07:46:41;42.76;34.09;49.91;;
1754;Laerm;58380;48.312;9.246;2023-07-31T07:49:06;43.48;34.92;57.69;;
1754;Laerm;58380;48.312;9.246;2023-07-31T07:51:32;42.41;35.47;52.60;;
1754;Laerm;58380;48.312;9.246;2023-07-31T07:53:58;40.62;32.48;47.99;;
1754;Laerm;58380;48.312;9.246;2023-07-31T07:56:26;41.70;34.47;53.47;;
1754;Laerm;58380;48.312;9.246;2023-07-31T07:58:53;40.59;34.65;47.51;;
1754;Laerm;58380;48.312;9.246;2023-07-31T08:01:19;39.97;33.78;49.60;;
1754;Laerm;58380;48.312;9.246;2023-07-31T08:03:44;44.88;34.95;59.75;;
1754;Laerm;58380;48.312;9.246;2023-07-31T08:06:10;44.61;36.70;52.81;;
1754;Laerm;58380;48.312;9.246;2023-07-31T08:08:37;42.21;34.94;57.47;;
1754;Laerm;58380;48.312;9.246;2023-07-31T08:11:02;43.49;37.10;60.08;;
1754;Laerm;58380;48.312;9.246;2023-07-31T08:13:28;42.21;36.42;55.99;;
1754;Laerm;58380;48.312;9.246;2023-07-31T08:15:53;40.64;35.56;48.45;;
1754;Laerm;58380;48.312;9.246;2023-07-31T08:18:19;41.64;34.87;68.50;;
1754;Laerm;58380;48.312;9.246;2023-07-31T08:20:44;43.27;34.81;68.45;;
1754;Laerm;58380;48.312;9.246;2023-07-31T08:23:10;39.65;33.70;55.32;;
1754;Laerm;58380;48.312;9.246;2023-07-31T08:25:36;41.44;36.06;54.52;;
1754;Laerm;58380;48.312;9.246;2023-07-31T08:28:03;43.62;37.34;59.84;;
1754;Laerm;58380;48.312;9.246;2023-07-31T08:30:28;45.16;37.95;63.59;;
1754;Laerm;58380;48.312;9.246;2023-07-31T08:32:54;40.72;35.78;49.42;;
1754;Laerm;58380;48.312;9.246;2023-07-31T08:35:19;39.64;34.96;51.75;;
1754;Laerm;58380;48.312;9.246;2023-07-31T08:37:45;42.27;35.07;54.18;;
1754;Laerm;58380;48.312;9.246;2023-07-31T08:40:10;43.47;35.42;53.24;;
1754;Laerm;58380;48.312;9.246;2023-07-31T08:42:47;41.35;35.58;58.36;;
1754;Laerm;58380;48.312;9.246;2023-07-31T08:45:17;41.34;35.65;52.98;;
1754;Laerm;58380;48.312;9.246;2023-07-31T08:47:51;42.66;35.49;63.62;;
1754;Laerm;58380;48.312;9.246;2023-07-31T08:50:21;45.18;36.83;64.51;;
1754;Laerm;58380;48.312;9.246;2023-07-31T08:52:49;47.62;35.50;72.46;;
1754;Laerm;58380;48.312;9.246;2023-07-31T08:55:16;52.85;37.19;77.98;;
1754;Laerm;58380;48.312;9.246;2023-07-31T08:57:42;47.28;35.48;70.94;;
1754;Laerm;58380;48.312;9.246;2023-07-31T09:00:10;45.65;35.44;69.39;;
1754;Laerm;58380;48.312;9.246;2023-07-31T09:03:00;56.96;37.52;89.15;;
1754;Laerm;58380;48.312;9.246;2023-07-31T09:05:31;61.20;33.62;86.20;;
1754;Laerm;58380;48.312;9.246;2023-07-31T09:07:58;61.30;34.37;85.14;;
1754;Laerm;58380;48.312;9.246;2023-07-31T09:10:24;43.91;35.38;63.92;;
1754;Laerm;58380;48.312;9.246;2023-07-31T09:12:52;48.96;35.91;78.34;;
1754;Laerm;58380;48.312;9.246;2023-07-31T09:15:18;57.19;35.99;89.53;;
1754;Laerm;58380;48.312;9.246;2023-07-31T09:17:44;46.07;35.84;70.03;;
1754;Laerm;58380;48.312;9.246;2023-07-31T09:20:28;45.28;35.35;75.06;;
1754;Laerm;58380;48.312;9.246;2023-07-31T09:22:55;44.54;35.57;73.10;;
1754;Laerm;58380;48.312;9.246;2023-07-31T09:25:26;44.23;36.08;66.06;;
1754;Laerm;58380;48.312;9.246;2023-07-31T09:30:25;46.52;35.48;76.56;;
1754;Laerm;58380;48.312;9.246;2023-07-31T09:33:00;45.50;36.12;64.23;;
1754;Laerm;58380;48.312;9.246;2023-07-31T09:35:34;45.47;36.13;69.24;;
1754;Laerm;58380;48.312;9.246;2023-07-31T09:38:04;46.33;36.40;71.49;;
1754;Laerm;58380;48.312;9.246;2023-07-31T09:40:34;45.36;35.91;72.08;;
1754;Laerm;58380;48.312;9.246;2023-07-31T09:43:09;42.38;33.52;65.71;;
1754;Laerm;58380;48.312;9.246;2023-07-31T09:45:40;44.22;35.21;68.87;;
1754;Laerm;58380;48.312;9.246;2023-07-31T09:48:10;45.64;34.52;70.51;;
1754;Laerm;58380;48.312;9.246;2023-07-31T09:50:38;51.47;38.60;69.25;;
1754;Laerm;58380;48.312;9.246;2023-07-31T09:53:06;45.15;36.81;73.98;;
1754;Laerm;58380;48.312;9.246;2023-07-31T09:55:32;46.67;35.32;69.45;;
1754;Laerm;58380;48.312;9.246;2023-07-31T09:57:58;47.99;35.51;71.11;;
1754;Laerm;58380;48.312;9.246;2023-07-31T10:00:24;49.35;36.93;72.27;;
1754;Laerm;58380;48.312;9.246;2023-07-31T10:02:57;48.68;38.04;80.04;;
1754;Laerm;58380;48.312;9.246;2023-07-31T10:05:30;55.68;35.42;88.09;;
1754;Laerm;58380;48.312;9.246;2023-07-31T10:07:57;75.02;36.72;90.67;;
1754;Laerm;58380;48.312;9.246;2023-07-31T10:10:23;68.65;34.55;89.57;;
1754;Laerm;58380;48.312;9.246;2023-07-31T10:12:49;46.57;36.96;67.46;;
1754;Laerm;58380;48.312;9.246;2023-07-31T10:15:16;43.17;32.03;69.18;;
1754;Laerm;58380;48.312;9.246;2023-07-31T10:17:42;45.57;33.41;72.72;;
1754;Laerm;58380;48.312;9.246;2023-07-31T10:20:09;43.70;33.16;68.11;;
1754;Laerm;58380;48.312;9.246;2023-07-31T10:22:35;43.46;34.16;68.78;;
1754;Laerm;58380;48.312;9.246;2023-07-31T10:25:02;48.57;36.36;67.89;;
1754;Laerm;58380;48.312;9.246;2023-07-31T10:27:28;46.24;34.40;67.88;;
1754;Laerm;58380;48.312;9.246;2023-07-31T10:29:56;61.99;33.98;75.76;;
1754;Laerm;58380;48.312;9.246;2023-07-31T10:32:23;47.09;34.45;77.23;;
1754;Laerm;58380;48.312;9.246;2023-07-31T10:34:51;46.91;34.38;71.16;;
1754;Laerm;58380;48.312;9.246;2023-07-31T10:37:37;56.68;36.42;76.11;;
1754;Laerm;58380;48.312;9.246;2023-07-31T10:40:13;48.03;37.42;70.31;;
1754;Laerm;58380;48.312;9.246;2023-07-31T10:42:52;44.32;37.45;64.94;;
1754;Laerm;58380;48.312;9.246;2023-07-31T10:45:37;44.67;36.37;73.82;;
1754;Laerm;58380;48.312;9.246;2023-07-31T10:48:04;42.74;35.61;69.09;;
1754;Laerm;58380;48.312;9.246;2023-07-31T10:50:32;45.58;37.27;72.79;;
1754;Laerm;58380;48.312;9.246;2023-07-31T10:53:01;73.12;34.86;90.35;;
1754;Laerm;58380;48.312;9.246;2023-07-31T10:55:39;72.04;39.76;87.36;;
1754;Laerm;58380;48.312;9.246;2023-07-31T10:58:11;75.93;37.30;92.30;;
1754;Laerm;58380;48.312;9.246;2023-07-31T11:00:45;46.14;34.57;73.52;;
1754;Laerm;58380;48.312;9.246;2023-07-31T11:03:15;44.70;37.00;69.03;;
1754;Laerm;58380;48.312;9.246;2023-07-31T11:05:52;51.99;36.24;64.46;;
1754;Laerm;58380;48.312;9.246;2023-07-31T11:08:22;42.80;35.54;56.36;;
1754;Laerm;58380;48.312;9.246;2023-07-31T11:10:51;48.44;35.26;61.84;;
1754;Laerm;58380;48.312;9.246;2023-07-31T11:13:17;44.22;35.18;59.86;;
1754;Laerm;58380;48.312;9.246;2023-07-31T11:15:43;57.40;35.25;86.40;;
1754;Laerm;58380;48.312;9.246;2023-07-31T11:18:08;64.49;35.56;84.84;;
1754;Laerm;58380;48.312;9.246;2023-07-31T11:20:37;69.03;38.53;88.90;;
1754;Laerm;58380;48.312;9.246;2023-07-31T11:23:09;73.15;39.25;94.72;;
1754;Laerm;58380;48.312;9.246;2023-07-31T11:25:36;69.08;43.04;81.47;;
1754;Laerm;58380;48.312;9.246;2023-07-31T11:28:10;72.10;38.08;88.15;;
1754;Laerm;58380;48.312;9.246;2023-07-31T11:30:37;47.75;36.63;72.49;;
1754;Laerm;58380;48.312;9.246;2023-07-31T11:33:05;47.57;36.17;59.17;;
1754;Laerm;58380;48.312;9.246;2023-07-31T11:35:33;44.25;35.75;54.31;;
1754;Laerm;58380;48.312;9.246;2023-07-31T11:38:00;45.32;35.06;57.64;;
1754;Laerm;58380;48.312;9.246;2023-07-31T11:40:25;43.58;33.94;59.35;;
1754;Laerm;58380;48.312;9.246;2023-07-31T11:42:58;67.15;36.97;87.66;;
1754;Laerm;58380;48.312;9.246;2023-07-31T11:45:27;41.58;32.72;59.91;;
1754;Laerm;58380;48.312;9.246;2023-07-31T11:47:55;42.97;35.41;57.94;;
1754;Laerm;58380;48.312;9.246;2023-07-31T11:50:22;45.19;36.51;60.72;;
1754;Laerm;58380;48.312;9.246;2023-07-31T11:52:55;46.64;37.43;69.05;;
1754;Laerm;58380;48.312;9.246;2023-07-31T11:55:23;44.11;37.25;55.50;;
1754;Laerm;58380;48.312;9.246;2023-07-31T11:57:49;47.75;38.73;57.20;;
1754;Laerm;58380;48.312;9.246;2023-07-31T12:00:16;49.19;38.40;57.21;;
1754;Laerm;58380;48.312;9.246;2023-07-31T12:02:43;47.58;33.77;63.72;;
1754;Laerm;58380;48.312;9.246;2023-07-31T12:05:13;48.86;37.85;55.30;;
1754;Laerm;58380;48.312;9.246;2023-07-31T12:07:50;48.41;37.57;56.59;;
1754;Laerm;58380;48.312;9.246;2023-07-31T12:10:32;50.21;41.26;56.72;;
1754;Laerm;58380;48.312;9.246;2023-07-31T12:13:07;50.06;40.15;62.32;;
1754;Laerm;58380;48.312;9.246;2023-07-31T12:15:41;50.62;38.12;66.28;;
1754;Laerm;58380;48.312;9.246;2023-07-31T12:18:19;50.71;39.64;56.64;;
1754;Laerm;58380;48.312;9.246;2023-07-31T12:20:48;53.87;34.75;74.96;;
1754;Laerm;58380;48.312;9.246;2023-07-31T12:23:17;50.70;34.50;57.45;;
1754;Laerm;58380;48.312;9.246;2023-07-31T12:25:43;49.99;35.72;57.17;;
1754;Laerm;58380;48.312;9.246;2023-07-31T12:28:08;49.56;38.92;63.87;;
1754;Laerm;58380;48.312;9.246;2023-07-31T12:30:39;49.33;37.10;58.57;;
1754;Laerm;58380;48.312;9.246;2023-07-31T12:33:15;51.39;35.27;58.13;;
1754;Laerm;58380;48.312;9.246;2023-07-31T12:35:44;48.58;35.51;57.26;;
1754;Laerm;58380;48.312;9.246;2023-07-31T12:38:10;49.57;35.80;55.83;;
1754;Laerm;58380;48.312;9.246;2023-07-31T12:40:38;48.09;36.07;55.19;;
1754;Laerm;58380;48.312;9.246;2023-07-31T12:43:05;48.79;34.48;54.57;;
1754;Laerm;58380;48.312;9.246;2023-07-31T12:45:30;50.36;34.91;57.99;;
1754;Laerm;58380;48.312;9.246;2023-07-31T12:47:57;52.17;37.55;57.05;;
1754;Laerm;58380;48.312;9.246;2023-07-31T12:50:23;52.01;38.15;57.81;;
1754;Laerm;58380;48.312;9.246;2023-07-31T12:52:49;49.93;36.33;60.18;;
1754;Laerm;58380;48.312;9.246;2023-07-31T12:55:14;51.35;38.92;57.74;;
1754;Laerm;58380;48.312;9.246;2023-07-31T12:57:40;53.12;38.26;58.62;;
1754;Laerm;58380;48.312;9.246;2023-07-31T13:00:07;53.54;37.82;59.49;;
1754;Laerm;58380;48.312;9.246;2023-07-31T13:02:33;52.41;41.30;58.81;;
1754;Laerm;58380;48.312;9.246;2023-07-31T13:04:58;52.19;36.04;62.51;;
1754;Laerm;58380;48.312;9.246;2023-07-31T13:07:23;52.37;37.48;58.63;;
1754;Laerm;58380;48.312;9.246;2023-07-31T13:09:49;50.62;36.47;58.23;;
1754;Laerm;58380;48.312;9.246;2023-07-31T13:12:14;52.73;37.35;58.46;;
1754;Laerm;58380;48.312;9.246;2023-07-31T13:14:39;51.58;34.68;58.22;;
1754;Laerm;58380;48.312;9.246;2023-07-31T13:17:05;49.45;36.36;56.49;;
1754;Laerm;58380;48.312;9.246;2023-07-31T13:19:30;49.86;35.74;57.25;;
1754;Laerm;58380;48.312;9.246;2023-07-31T13:21:56;51.93;38.36;58.27;;
1754;Laerm;58380;48.312;9.246;2023-07-31T13:24:21;54.29;39.34;61.97;;
1754;Laerm;58380;48.312;9.246;2023-07-31T13:26:46;53.86;38.25;58.58;;
1754;Laerm;58380;48.312;9.246;2023-07-31T13:29:11;53.91;39.30;67.58;;
1754;Laerm;58380;48.312;9.246;2023-07-31T13:31:37;49.95;34.19;59.01;;
1754;Laerm;58380;48.312;9.246;2023-07-31T13:34:02;48.87;34.19;56.00;;
1754;Laerm;58380;48.312;9.246;2023-07-31T13:36:28;51.85;32.94;60.58;;
1754;Laerm;58380;48.312;9.246;2023-07-31T13:38:53;50.13;35.32;55.19;;
1754;Laerm;58380;48.312;9.246;2023-07-31T13:41:18;50.56;38.91;59.24;;
1754;Laerm;58380;48.312;9.246;2023-07-31T13:43:44;53.42;41.93;62.19;;
1754;Laerm;58380;48.312;9.246;2023-07-31T13:46:09;50.04;37.85;71.97;;
1754;Laerm;58380;48.312;9.246;2023-07-31T13:48:36;54.81;38.78;79.54;;
1754;Laerm;58380;48.312;9.246;2023-07-31T13:51:02;66.30;38.54;83.83;;
1754;Laerm;58380;48.312;9.246;2023-07-31T13:53:28;72.94;40.45;91.23;;
1754;Laerm;58380;48.312;9.246;2023-07-31T13:55:53;75.59;54.88;89.62;;
1754;Laerm;58380;48.312;9.246;2023-07-31T13:58:18;55.60;46.16;67.09;;
1754;Laerm;58380;48.312;9.246;2023-07-31T14:00:44;49.76;39.72;71.93;;
1754;Laerm;58380;48.312;9.246;2023-07-31T14:03:09;51.97;39.56;70.38;;
1754;Laerm;58380;48.312;9.246;2023-07-31T14:05:35;46.40;36.07;59.90;;
1754;Laerm;58380;48.312;9.246;2023-07-31T14:08:00;53.90;39.33;83.67;;
1754;Laerm;58380;48.312;9.246;2023-07-31T14:10:26;50.69;39.72;74.26;;
1754;Laerm;58380;48.312;9.246;2023-07-31T14:12:51;59.95;39.09;92.99;;
1754;Laerm;58380;48.312;9.246;2023-07-31T14:15:16;51.60;34.53;82.32;;
1754;Laerm;58380;48.312;9.246;2023-07-31T14:17:42;47.38;36.09;73.79;;
1754;Laerm;58380;48.312;9.246;2023-07-31T14:20:08;46.85;35.68;59.86;;
1754;Laerm;58380;48.312;9.246;2023-07-31T14:22:34;50.82;37.02;64.28;;
1754;Laerm;58380;48.312;9.246;2023-07-31T14:25:00;50.57;39.86;70.42;;
1754;Laerm;58380;48.312;9.246;2023-07-31T14:27:25;49.18;39.00;59.06;;
1754;Laerm;58380;48.312;9.246;2023-07-31T14:29:51;50.78;42.01;62.28;;
1754;Laerm;58380;48.312;9.246;2023-07-31T14:32:16;48.68;36.64;54.78;;
1754;Laerm;58380;48.312;9.246;2023-07-31T14:34:42;50.64;38.83;58.28;;
1754;Laerm;58380;48.312;9.246;2023-07-31T14:37:07;49.02;37.85;58.94;;
1754;Laerm;58380;48.312;9.246;2023-07-31T14:39:32;49.56;38.44;56.44;;
1754;Laerm;58380;48.312;9.246;2023-07-31T14:41:58;49.30;35.98;58.97;;
1754;Laerm;58380;48.312;9.246;2023-07-31T14:44:23;48.84;40.71;61.39;;
1754;Laerm;58380;48.312;9.246;2023-07-31T14:46:48;47.15;36.93;65.48;;
1754;Laerm;58380;48.312;9.246;2023-07-31T14:49:14;47.22;36.78;64.17;;
1754;Laerm;58380;48.312;9.246;2023-07-31T14:51:39;47.59;37.20;57.05;;
1754;Laerm;58380;48.312;9.246;2023-07-31T14:54:05;49.12;38.54;59.14;;
1754;Laerm;58380;48.312;9.246;2023-07-31T14:56:30;43.90;37.18;57.14;;
1754;Laerm;58380;48.312;9.246;2023-07-31T14:58:55;45.56;36.27;66.02;;
1754;Laerm;58380;48.312;9.246;2023-07-31T15:01:21;46.38;34.04;67.31;;
1754;Laerm;58380;48.312;9.246;2023-07-31T15:03:46;47.84;39.11;75.08;;
1754;Laerm;58380;48.312;9.246;2023-07-31T15:06:11;47.94;40.03;63.52;;
1754;Laerm;58380;48.312;9.246;2023-07-31T15:08:38;48.91;37.99;72.80;;
1754;Laerm;58380;48.312;9.246;2023-07-31T15:11:05;51.08;38.62;79.44;;
1754;Laerm;58380;48.312;9.246;2023-07-31T15:13:30;64.12;39.74;96.60;;
1754;Laerm;58380;48.312;9.246;2023-07-31T15:15:56;51.72;41.14;77.87;;
1754;Laerm;58380;48.312;9.246;2023-07-31T15:18:23;53.46;35.08;76.15;;
1754;Laerm;58380;48.312;9.246;2023-07-31T15:20:48;48.10;38.31;67.31;;
1754;Laerm;58380;48.312;9.246;2023-07-31T15:23:13;49.10;37.97;73.45;;
1754;Laerm;58380;48.312;9.246;2023-07-31T15:25:39;47.17;38.07;70.23;;
1754;Laerm;58380;48.312;9.246;2023-07-31T15:28:04;50.06;38.30;72.95;;
1754;Laerm;58380;48.312;9.246;2023-07-31T15:30:32;46.89;36.01;69.70;;
1754;Laerm;58380;48.312;9.246;2023-07-31T15:32:58;49.03;40.33;71.08;;
1754;Laerm;58380;48.312;9.246;2023-07-31T15:35:24;50.83;34.57;80.42;;
1754;Laerm;58380;48.312;9.246;2023-07-31T15:37:49;49.29;35.92;75.33;;
1754;Laerm;58380;48.312;9.246;2023-07-31T15:40:14;48.62;38.71;70.52;;
1754;Laerm;58380;48.312;9.246;2023-07-31T15:42:40;57.50;39.30;89.61;;
1754;Laerm;58380;48.312;9.246;2023-07-31T15:45:08;58.36;35.50;88.16;;
1754;Laerm;58380;48.312;9.246;2023-07-31T15:47:35;57.56;34.34;88.99;;
1754;Laerm;58380;48.312;9.246;2023-07-31T15:50:01;50.85;38.11;78.71;;
1754;Laerm;58380;48.312;9.246;2023-07-31T15:52:26;66.50;35.21;90.24;;
1754;Laerm;58380;48.312;9.246;2023-07-31T15:54:52;67.67;35.24;90.62;;
1754;Laerm;58380;48.312;9.246;2023-07-31T15:57:17;73.63;36.31;105.25;;
1754;Laerm;58380;48.312;9.246;2023-07-31T15:59:43;51.27;36.95;75.08;;
1754;Laerm;58380;48.312;9.246;2023-07-31T16:02:09;45.91;35.65;62.81;;
1754;Laerm;58380;48.312;9.246;2023-07-31T16:04:36;48.17;33.86;73.96;;
1754;Laerm;58380;48.312;9.246;2023-07-31T16:07:02;46.99;34.12;68.56;;
1754;Laerm;58380;48.312;9.246;2023-07-31T16:09:27;42.36;32.43;63.88;;
1754;Laerm;58380;48.312;9.246;2023-07-31T16:11:52;45.77;33.67;69.15;;
1754;Laerm;58380;48.312;9.246;2023-07-31T16:14:18;57.00;39.04;90.20;;
1754;Laerm;58380;48.312;9.246;2023-07-31T16:16:43;44.65;35.40;66.26;;
1754;Laerm;58380;48.312;9.246;2023-07-31T16:19:09;47.94;36.24;69.92;;
1754;Laerm;58380;48.312;9.246;2023-07-31T16:21:35;46.88;33.91;67.36;;
1754;Laerm;58380;48.312;9.246;2023-07-31T16:24:01;49.20;31.87;70.14;;
1754;Laerm;58380;48.312;9.246;2023-07-31T16:26:26;49.73;35.55;72.97;;
1754;Laerm;58380;48.312;9.246;2023-07-31T16:28:51;46.61;31.98;75.27;;
1754;Laerm;58380;48.312;9.246;2023-07-31T16:31:16;45.36;34.07;69.76;;
1754;Laerm;58380;48.312;9.246;2023-07-31T16:33:42;49.97;38.32;82.69;;
1754;Laerm;58380;48.312;9.246;2023-07-31T16:36:07;68.19;38.32;95.04;;
1754;Laerm;58380;48.312;9.246;2023-07-31T16:38:33;48.18;34.25;75.44;;
1754;Laerm;58380;48.312;9.246;2023-07-31T16:40:58;51.60;35.18;80.74;;
1754;Laerm;58380;48.312;9.246;2023-07-31T16:43:24;51.59;36.10;80.95;;
1754;Laerm;58380;48.312;9.246;2023-07-31T16:45:49;68.30;39.52;92.07;;
1754;Laerm;58380;48.312;9.246;2023-07-31T16:48:15;48.92;34.11;69.28;;
1754;Laerm;58380;48.312;9.246;2023-07-31T16:50:40;48.91;33.37;72.95;;
1754;Laerm;58380;48.312;9.246;2023-07-31T16:53:05;45.10;32.91;71.13;;
1754;Laerm;58380;48.312;9.246;2023-07-31T16:55:31;47.39;32.13;71.30;;
1754;Laerm;58380;48.312;9.246;2023-07-31T16:57:59;48.80;33.12;72.19;;
1754;Laerm;58380;48.312;9.246;2023-07-31T17:00:24;56.82;32.52;89.50;;
1754;Laerm;58380;48.312;9.246;2023-07-31T17:02:50;44.98;33.26;70.14;;
1754;Laerm;58380;48.312;9.246;2023-07-31T17:05:15;47.77;35.10;74.46;;
1754;Laerm;58380;48.312;9.246;2023-07-31T17:07:41;45.97;32.45;68.53;;
1754;Laerm;58380;48.312;9.246;2023-07-31T17:10:06;42.40;31.85;64.27;;
1754;Laerm;58380;48.312;9.246;2023-07-31T17:12:32;48.01;32.93;74.33;;
1754;Laerm;58380;48.312;9.246;2023-07-31T17:14:57;43.89;33.06;65.22;;
1754;Laerm;58380;48.312;9.246;2023-07-31T17:17:23;41.61;35.18;62.21;;
1754;Laerm;58380;48.312;9.246;2023-07-31T17:19:49;40.56;34.80;60.06;;
1754;Laerm;58380;48.312;9.246;2023-07-31T17:22:14;45.18;34.42;71.14;;
1754;Laerm;58380;48.312;9.246;2023-07-31T17:24:39;52.12;34.97;78.27;;
1754;Laerm;58380;48.312;9.246;2023-07-31T17:27:05;44.93;32.00;69.46;;
1754;Laerm;58380;48.312;9.246;2023-07-31T17:29:30;43.66;34.94;65.87;;
1754;Laerm;58380;48.312;9.246;2023-07-31T17:31:56;54.38;34.61;85.67;;
1754;Laerm;58380;48.312;9.246;2023-07-31T17:34:21;50.42;33.83;80.47;;
1754;Laerm;58380;48.312;9.246;2023-07-31T17:36:47;42.05;32.30;68.93;;
1754;Laerm;58380;48.312;9.246;2023-07-31T17:39:12;40.67;32.78;49.91;;
1754;Laerm;58380;48.312;9.246;2023-07-31T17:41:37;40.80;33.52;52.69;;
1754;Laerm;58380;48.312;9.246;2023-07-31T17:44:03;43.18;32.15;60.50;;
1754;Laerm;58380;48.312;9.246;2023-07-31T17:46:28;41.41;33.71;50.83;;
1754;Laerm;58380;48.312;9.246;2023-07-31T17:48:53;42.01;32.62;53.69;;
1754;Laerm;58380;48.312;9.246;2023-07-31T17:51:19;42.21;33.38;51.11;;
1754;Laerm;58380;48.312;9.246;2023-07-31T17:53:44;45.30;36.74;51.86;;
1754;Laerm;58380;48.312;9.246;2023-07-31T17:56:10;47.59;36.24;58.87;;
1754;Laerm;58380;48.312;9.246;2023-07-31T17:58:35;45.46;34.16;57.31;;
1754;Laerm;58380;48.312;9.246;2023-07-31T18:01:00;44.67;34.15;56.61;;
1754;Laerm;58380;48.312;9.246;2023-07-31T18:03:26;41.38;33.42;53.04;;
1754;Laerm;58380;48.312;9.246;2023-07-31T18:05:52;44.38;34.58;61.06;;
1754;Laerm;58380;48.312;9.246;2023-07-31T18:08:17;43.35;33.80;53.11;;
1754;Laerm;58380;48.312;9.246;2023-07-31T18:10:47;41.28;32.45;50.62;;
1754;Laerm;58380;48.312;9.246;2023-07-31T18:13:13;43.98;31.35;64.55;;
1754;Laerm;58380;48.312;9.246;2023-07-31T18:15:46;43.35;32.34;52.84;;
1754;Laerm;58380;48.312;9.246;2023-07-31T18:18:13;48.10;34.69;63.92;;
1754;Laerm;58380;48.312;9.246;2023-07-31T18:20:39;48.03;34.56;54.52;;
1754;Laerm;58380;48.312;9.246;2023-07-31T18:23:04;48.99;36.44;58.02;;
1754;Laerm;58380;48.312;9.246;2023-07-31T18:25:30;51.01;39.66;59.06;;
1754;Laerm;58380;48.312;9.246;2023-07-31T18:27:55;52.94;41.84;63.58;;
1754;Laerm;58380;48.312;9.246;2023-07-31T18:30:20;53.07;39.02;62.27;;
1754;Laerm;58380;48.312;9.246;2023-07-31T18:32:46;51.87;37.20;56.28;;
1754;Laerm;58380;48.312;9.246;2023-07-31T18:35:11;53.31;46.17;62.11;;
1754;Laerm;58380;48.312;9.246;2023-07-31T18:37:39;51.15;41.25;59.72;;
1754;Laerm;58380;48.312;9.246;2023-07-31T18:40:05;53.43;45.83;59.36;;
1754;Laerm;58380;48.312;9.246;2023-07-31T18:42:30;52.72;44.48;55.85;;
1754;Laerm;58380;48.312;9.246;2023-07-31T18:44:55;52.51;37.66;55.84;;
1754;Laerm;58380;48.312;9.246;2023-07-31T18:47:21;53.21;46.42;56.60;;
1754;Laerm;58380;48.312;9.246;2023-07-31T18:49:46;52.81;45.48;59.82;;
1754;Laerm;58380;48.312;9.246;2023-07-31T18:52:12;52.99;46.49;55.71;;
1754;Laerm;58380;48.312;9.246;2023-07-31T18:54:37;53.00;44.73;56.27;;
1754;Laerm;58380;48.312;9.246;2023-07-31T18:57:03;52.94;46.36;55.75;;
1754;Laerm;58380;48.312;9.246;2023-07-31T18:59:28;52.63;44.94;55.82;;
1754;Laerm;58380;48.312;9.246;2023-07-31T19:01:54;52.52;44.82;57.08;;
1754;Laerm;58380;48.312;9.246;2023-07-31T19:04:19;52.00;37.00;56.37;;
1754;Laerm;58380;48.312;9.246;2023-07-31T19:06:44;52.75;45.26;55.80;;
1754;Laerm;58380;48.312;9.246;2023-07-31T19:09:11;52.65;45.50;56.17;;
1754;Laerm;58380;48.312;9.246;2023-07-31T19:11:37;52.34;44.86;55.36;;
1754;Laerm;58380;48.312;9.246;2023-07-31T19:14:04;52.30;44.66;55.78;;
1754;Laerm;58380;48.312;9.246;2023-07-31T19:16:30;53.10;44.38;57.33;;
1754;Laerm;58380;48.312;9.246;2023-07-31T19:18:56;53.25;44.59;57.16;;
1754;Laerm;58380;48.312;9.246;2023-07-31T19:21:22;53.21;43.49;57.30;;
1754;Laerm;58380;48.312;9.246;2023-07-31T19:23:47;53.08;44.67;64.54;;
1754;Laerm;58380;48.312;9.246;2023-07-31T19:26:12;52.49;44.20;56.01;;
1754;Laerm;58380;48.312;9.246;2023-07-31T19:28:38;52.67;39.10;56.45;;
1754;Laerm;58380;48.312;9.246;2023-07-31T19:31:04;52.62;43.80;56.37;;
1754;Laerm;58380;48.312;9.246;2023-07-31T19:33:29;51.85;44.52;55.04;;
1754;Laerm;58380;48.312;9.246;2023-07-31T19:35:57;52.33;40.78;55.77;;
1754;Laerm;58380;48.312;9.246;2023-07-31T19:38:23;52.40;44.23;55.75;;
1754;Laerm;58380;48.312;9.246;2023-07-31T19:40:49;52.17;43.81;55.69;;
1754;Laerm;58380;48.312;9.246;2023-07-31T19:43:14;52.05;43.17;55.32;;
1754;Laerm;58380;48.312;9.246;2023-07-31T19:45:40;52.26;43.25;60.12;;
1754;Laerm;58380;48.312;9.246;2023-07-31T19:48:07;52.00;44.04;59.83;;
1754;Laerm;58380;48.312;9.246;2023-07-31T19:50:33;52.14;42.97;55.38;;
1754;Laerm;58380;48.312;9.246;2023-07-31T19:52:58;52.00;41.05;55.46;;
1754;Laerm;58380;48.312;9.246;2023-07-31T19:55:24;51.86;36.12;55.47;;
1754;Laerm;58380;48.312;9.246;2023-07-31T19:57:49;52.13;42.89;55.74;;
1754;Laerm;58380;48.312;9.246;2023-07-31T20:00:15;52.33;42.46;55.93;;
1754;Laerm;58380;48.312;9.246;2023-07-31T20:02:40;52.14;43.09;72.41;;
1754;Laerm;58380;48.312;9.246;2023-07-31T20:05:06;49.70;40.15;64.02;;
1754;Laerm;58380;48.312;9.246;2023-07-31T20:07:32;58.00;44.40;89.29;;
1754;Laerm;58380;48.312;9.246;2023-07-31T20:09:57;53.50;42.45;78.29;;
1754;Laerm;58380;48.312;9.246;2023-07-31T20:12:24;48.01;39.15;79.95;;
1754;Laerm;58380;48.312;9.246;2023-07-31T20:14:52;46.42;36.57;53.03;;
1754;Laerm;58380;48.312;9.246;2023-07-31T20:17:20;48.66;39.39;53.34;;
1754;Laerm;58380;48.312;9.246;2023-07-31T20:19:46;48.63;40.66;52.46;;
1754;Laerm;58380;48.312;9.246;2023-07-31T20:22:12;48.52;38.79;52.81;;
1754;Laerm;58380;48.312;9.246;2023-07-31T20:24:37;48.51;40.47;53.51;;
1754;Laerm;58380;48.312;9.246;2023-07-31T20:27:02;48.57;39.38;60.49;;
1754;Laerm;58380;48.312;9.246;2023-07-31T20:29:28;49.62;39.34;79.72;;
1754;Laerm;58380;48.312;9.246;2023-07-31T20:31:53;48.11;36.87;75.78;;
1754;Laerm;58380;48.312;9.246;2023-07-31T20:34:19;49.58;36.31;85.06;;
1754;Laerm;58380;48.312;9.246;2023-07-31T20:36:44;44.04;35.63;75.38;;
1754;Laerm;58380;48.312;9.246;2023-07-31T20:39:10;48.18;40.53;74.61;;
